createdAt,value
2023-02-09T00:02:22.007Z,84.6
2023-02-09T00:22:21.854Z,85.1
2023-02-09T00:42:21.970Z,85.3
2023-02-09T01:02:22.143Z,85.5
2023-02-09T01:22:22.099Z,85.9
2023-02-09T01:42:22.264Z,86.7
2023-02-09T02:02:22.371Z,86.8
2023-02-09T02:22:22.299Z,87.2
2023-02-09T02:42:22.338Z,87.8
2023-02-09T03:02:22.537Z,88.3
2023-02-09T03:22:22.523Z,88.3
2023-02-09T03:42:22.612Z,88.6
2023-02-09T04:02:22.722Z,88.4
2023-02-09T04:22:22.703Z,88.7
2023-02-09T04:42:22.735Z,89
2023-02-09T05:02:22.957Z,88.9
2023-02-09T05:22:22.962Z,89.3
2023-02-09T05:42:23.025Z,89.7
2023-02-09T06:02:23.123Z,89.6
2023-02-09T06:22:23.113Z,89.5
2023-02-09T06:42:23.184Z,90.1
2023-02-09T07:02:23.267Z,89.9
2023-02-09T07:22:23.420Z,89.8
2023-02-09T07:42:23.538Z,89.2
2023-02-09T08:02:23.457Z,88.3
2023-02-09T08:22:23.626Z,87.3
2023-02-09T08:42:23.680Z,85.5
2023-02-09T09:02:23.653Z,82.7
2023-02-09T09:22:23.777Z,79.8
2023-02-09T09:42:23.827Z,75.4
2023-02-09T10:02:24.053Z,70.5
2023-02-09T10:22:23.898Z,66.8
2023-02-09T10:42:24.022Z,62.2
2023-02-09T11:02:23.993Z,59.9
2023-02-09T11:22:28.808Z,54.7
2023-02-09T11:42:24.200Z,48.3
2023-02-09T12:02:24.231Z,41.8
2023-02-09T12:22:24.173Z,41
2023-02-09T12:42:24.281Z,40.7
2023-02-09T13:02:24.276Z,39.2
2023-02-09T13:22:24.893Z,38.7
2023-02-09T13:42:24.536Z,39.5
2023-02-09T14:02:24.506Z,38.9
2023-02-09T14:22:24.523Z,39.6
2023-02-09T14:42:24.516Z,43.3
2023-02-09T15:02:24.695Z,44.6
2023-02-09T15:22:24.611Z,48.9
2023-02-09T15:42:24.647Z,52.1
2023-02-09T16:02:24.797Z,56.2
2023-02-09T16:22:24.787Z,59.2
2023-02-09T16:42:24.825Z,63.9
2023-02-09T17:02:24.971Z,66.1
2023-02-09T17:22:25.360Z,68.7
2023-02-09T17:42:24.982Z,70.3
2023-02-09T18:02:25.015Z,72.8
2023-02-09T18:22:25.160Z,74.1
2023-02-09T18:42:25.140Z,76.4
2023-02-09T19:02:25.281Z,77.4
2023-02-09T19:22:25.274Z,78.5
2023-02-09T19:42:25.356Z,80
2023-02-09T20:02:25.443Z,80.7
2023-02-09T20:22:25.462Z,80.8
2023-02-09T20:42:25.411Z,81.3
2023-02-09T21:02:25.685Z,82.1
2023-02-09T21:22:25.735Z,82.9
2023-02-09T21:42:25.643Z,83.8
2023-02-09T22:02:25.733Z,84.7
2023-02-09T22:22:25.721Z,85.2
2023-02-09T22:42:25.906Z,86
2023-02-09T23:02:25.893Z,86.9
2023-02-09T23:22:25.993Z,87.3
2023-02-09T23:42:26.090Z,87.7
